sensor_id;sensor_type;location;lat;lon;timestamp;P1;durP1;ratioP1;P2;durP2;ratioP2
48534;SDS011;34323;52.022;5.686;2023-11-19T00:00:26;15.50;;;8.18;;
48534;SDS011;34323;52.022;5.686;2023-11-19T00:02:52;23.55;;;8.27;;
48534;SDS011;34323;52.022;5.686;2023-11-19T00:05:18;15.80;;;9.00;;
48534;SDS011;34323;52.022;5.686;2023-11-19T00:07:44;12.70;;;8.48;;
48534;SDS011;34323;52.022;5.686;2023-11-19T00:10:13;25.58;;;9.10;;
48534;SDS011;34323;52.022;5.686;2023-11-19T00:12:43;19.65;;;8.25;;
48534;SDS011;34323;52.022;5.686;2023-11-19T00:15:10;20.52;;;8.05;;
48534;SDS011;34323;52.022;5.686;2023-11-19T00:17:37;18.10;;;7.35;;
48534;SDS011;34323;52.022;5.686;2023-11-19T00:20:05;25.30;;;7.90;;
48534;SDS011;34323;52.022;5.686;2023-11-19T00:22:32;18.98;;;7.93;;
48534;SDS011;34323;52.022;5.686;2023-11-19T00:24:57;25.73;;;7.68;;
48534;SDS011;34323;52.022;5.686;2023-11-19T00:27:24;23.63;;;7.20;;
48534;SDS011;34323;52.022;5.686;2023-11-19T00:29:50;21.77;;;7.45;;
48534;SDS011;34323;52.022;5.686;2023-11-19T00:32:15;30.85;;;7.40;;
48534;SDS011;34323;52.022;5.686;2023-11-19T00:34:43;19.88;;;6.85;;
48534;SDS011;34323;52.022;5.686;2023-11-19T00:37:10;30.17;;;7.68;;
48534;SDS011;34323;52.022;5.686;2023-11-19T00:39:35;20.67;;;7.45;;
48534;SDS011;34323;52.022;5.686;2023-11-19T00:42:01;13.20;;;6.50;;
48534;SDS011;34323;52.022;5.686;2023-11-19T00:44:27;17.40;;;6.15;;
48534;SDS011;34323;52.022;5.686;2023-11-19T00:46:52;27.25;;;6.43;;
48534;SDS011;34323;52.022;5.686;2023-11-19T00:49:18;19.38;;;6.93;;
48534;SDS011;34323;52.022;5.686;2023-11-19T00:51:43;20.88;;;7.05;;
48534;SDS011;34323;52.022;5.686;2023-11-19T00:54:10;21.23;;;6.57;;
48534;SDS011;34323;52.022;5.686;2023-11-19T00:56:36;25.45;;;7.20;;
48534;SDS011;34323;52.022;5.686;2023-11-19T00:59:02;22.85;;;6.90;;
48534;SDS011;34323;52.022;5.686;2023-11-19T01:01:29;31.02;;;7.07;;
48534;SDS011;34323;52.022;5.686;2023-11-19T01:03:55;23.55;;;6.70;;
48534;SDS011;34323;52.022;5.686;2023-11-19T01:06:29;23.20;;;6.43;;
48534;SDS011;34323;52.022;5.686;2023-11-19T01:08:55;25.90;;;6.35;;
48534;SDS011;34323;52.022;5.686;2023-11-19T01:11:22;26.92;;;5.97;;
48534;SDS011;34323;52.022;5.686;2023-11-19T01:13:50;26.30;;;6.22;;
48534;SDS011;34323;52.022;5.686;2023-11-19T01:16:16;22.77;;;5.90;;
48534;SDS011;34323;52.022;5.686;2023-11-19T01:18:43;23.05;;;5.63;;
48534;SDS011;34323;52.022;5.686;2023-11-19T01:21:09;19.35;;;5.63;;
48534;SDS011;34323;52.022;5.686;2023-11-19T01:23:35;26.80;;;6.18;;
48534;SDS011;34323;52.022;5.686;2023-11-19T01:26:02;23.90;;;5.47;;
48534;SDS011;34323;52.022;5.686;2023-11-19T01:28:27;13.82;;;5.57;;
48534;SDS011;34323;52.022;5.686;2023-11-19T01:30:53;21.10;;;5.72;;
48534;SDS011;34323;52.022;5.686;2023-11-19T01:33:18;25.23;;;5.28;;
48534;SDS011;34323;52.022;5.686;2023-11-19T01:35:44;30.48;;;6.47;;
48534;SDS011;34323;52.022;5.686;2023-11-19T01:38:10;29.80;;;5.78;;
48534;SDS011;34323;52.022;5.686;2023-11-19T01:40:36;23.15;;;5.00;;
48534;SDS011;34323;52.022;5.686;2023-11-19T01:43:02;38.83;;;6.55;;
48534;SDS011;34323;52.022;5.686;2023-11-19T01:45:30;30.83;;;6.13;;
48534;SDS011;34323;52.022;5.686;2023-11-19T01:47:56;33.35;;;6.13;;
48534;SDS011;34323;52.022;5.686;2023-11-19T01:50:23;32.42;;;5.75;;
48534;SDS011;34323;52.022;5.686;2023-11-19T01:52:50;27.13;;;5.45;;
48534;SDS011;34323;52.022;5.686;2023-11-19T01:55:18;22.92;;;4.72;;
48534;SDS011;34323;52.022;5.686;2023-11-19T01:57:46;33.38;;;6.75;;
48534;SDS011;34323;52.022;5.686;2023-11-19T02:00:14;27.20;;;5.20;;
48534;SDS011;34323;52.022;5.686;2023-11-19T02:02:41;30.05;;;5.95;;
48534;SDS011;34323;52.022;5.686;2023-11-19T02:05:08;24.13;;;4.97;;
48534;SDS011;34323;52.022;5.686;2023-11-19T02:07:36;19.67;;;4.40;;
48534;SDS011;34323;52.022;5.686;2023-11-19T02:10:01;27.65;;;5.32;;
48534;SDS011;34323;52.022;5.686;2023-11-19T02:12:28;26.10;;;5.22;;
48534;SDS011;34323;52.022;5.686;2023-11-19T02:14:54;31.00;;;6.10;;
48534;SDS011;34323;52.022;5.686;2023-11-19T02:17:29;26.48;;;4.20;;
48534;SDS011;34323;52.022;5.686;2023-11-19T02:20:03;24.75;;;4.72;;
48534;SDS011;34323;52.022;5.686;2023-11-19T02:22:32;17.85;;;4.20;;
48534;SDS011;34323;52.022;5.686;2023-11-19T02:25:00;19.83;;;4.00;;
48534;SDS011;34323;52.022;5.686;2023-11-19T02:30:08;30.05;;;5.53;;
48534;SDS011;34323;52.022;5.686;2023-11-19T02:32:34;27.48;;;4.45;;
48534;SDS011;34323;52.022;5.686;2023-11-19T02:35:01;36.22;;;4.65;;
48534;SDS011;34323;52.022;5.686;2023-11-19T02:37:26;40.97;;;6.00;;
48534;SDS011;34323;52.022;5.686;2023-11-19T02:39:53;35.45;;;4.85;;
48534;SDS011;34323;52.022;5.686;2023-11-19T02:42:19;29.00;;;5.65;;
48534;SDS011;34323;52.022;5.686;2023-11-19T02:44:45;31.90;;;4.97;;
48534;SDS011;34323;52.022;5.686;2023-11-19T02:47:11;25.17;;;4.45;;
48534;SDS011;34323;52.022;5.686;2023-11-19T02:49:36;35.58;;;5.38;;
48534;SDS011;34323;52.022;5.686;2023-11-19T02:52:03;39.05;;;6.82;;
48534;SDS011;34323;52.022;5.686;2023-11-19T02:54:30;44.15;;;6.13;;
48534;SDS011;34323;52.022;5.686;2023-11-19T02:56:59;38.58;;;6.65;;
48534;SDS011;34323;52.022;5.686;2023-11-19T02:59:26;41.25;;;5.28;;
48534;SDS011;34323;52.022;5.686;2023-11-19T03:01:53;34.40;;;5.18;;
48534;SDS011;34323;52.022;5.686;2023-11-19T03:04:20;41.63;;;5.47;;
48534;SDS011;34323;52.022;5.686;2023-11-19T03:06:45;33.80;;;6.03;;
48534;SDS011;34323;52.022;5.686;2023-11-19T03:09:11;29.75;;;4.30;;
48534;SDS011;34323;52.022;5.686;2023-11-19T03:11:37;36.33;;;5.47;;
48534;SDS011;34323;52.022;5.686;2023-11-19T03:14:03;38.00;;;6.43;;
48534;SDS011;34323;52.022;5.686;2023-11-19T03:16:29;43.92;;;5.90;;
48534;SDS011;34323;52.022;5.686;2023-11-19T03:18:55;42.05;;;6.18;;
48534;SDS011;34323;52.022;5.686;2023-11-19T03:21:30;40.95;;;6.75;;
48534;SDS011;34323;52.022;5.686;2023-11-19T03:23:56;31.60;;;5.43;;
48534;SDS011;34323;52.022;5.686;2023-11-19T03:26:25;35.55;;;6.22;;
48534;SDS011;34323;52.022;5.686;2023-11-19T03:28:53;43.75;;;6.72;;
48534;SDS011;34323;52.022;5.686;2023-11-19T03:31:19;42.08;;;6.30;;
48534;SDS011;34323;52.022;5.686;2023-11-19T03:33:45;41.20;;;5.78;;
48534;SDS011;34323;52.022;5.686;2023-11-19T03:36:11;39.70;;;5.28;;
48534;SDS011;34323;52.022;5.686;2023-11-19T03:38:37;35.95;;;5.40;;
48534;SDS011;34323;52.022;5.686;2023-11-19T03:41:13;28.52;;;5.93;;
48534;SDS011;34323;52.022;5.686;2023-11-19T03:43:39;42.38;;;6.30;;
48534;SDS011;34323;52.022;5.686;2023-11-19T03:46:18;41.38;;;5.35;;
48534;SDS011;34323;52.022;5.686;2023-11-19T03:48:44;42.67;;;6.15;;
48534;SDS011;34323;52.022;5.686;2023-11-19T03:51:12;36.80;;;5.72;;
48534;SDS011;34323;52.022;5.686;2023-11-19T03:53:46;26.88;;;5.07;;
48534;SDS011;34323;52.022;5.686;2023-11-19T03:56:12;40.38;;;5.45;;
48534;SDS011;34323;52.022;5.686;2023-11-19T03:58:38;38.45;;;6.32;;
48534;SDS011;34323;52.022;5.686;2023-11-19T04:01:11;26.98;;;4.63;;
48534;SDS011;34323;52.022;5.686;2023-11-19T04:03:39;44.22;;;5.88;;
48534;SDS011;34323;52.022;5.686;2023-11-19T04:06:05;48.65;;;7.07;;
48534;SDS011;34323;52.022;5.686;2023-11-19T04:08:31;43.30;;;7.00;;
48534;SDS011;34323;52.022;5.686;2023-11-19T04:10:56;44.72;;;5.97;;
48534;SDS011;34323;52.022;5.686;2023-11-19T04:13:22;42.00;;;6.55;;
48534;SDS011;34323;52.022;5.686;2023-11-19T04:15:49;48.45;;;6.40;;
48534;SDS011;34323;52.022;5.686;2023-11-19T04:18:15;42.67;;;7.25;;
48534;SDS011;34323;52.022;5.686;2023-11-19T04:20:41;35.33;;;6.00;;
48534;SDS011;34323;52.022;5.686;2023-11-19T04:23:07;41.67;;;6.32;;
48534;SDS011;34323;52.022;5.686;2023-11-19T04:25:34;39.45;;;5.20;;
48534;SDS011;34323;52.022;5.686;2023-11-19T04:28:00;42.88;;;6.53;;
48534;SDS011;34323;52.022;5.686;2023-11-19T04:30:27;43.05;;;5.55;;
48534;SDS011;34323;52.022;5.686;2023-11-19T04:32:53;34.53;;;5.97;;
48534;SDS011;34323;52.022;5.686;2023-11-19T04:35:18;39.65;;;6.25;;
48534;SDS011;34323;52.022;5.686;2023-11-19T04:37:44;39.13;;;5.80;;
48534;SDS011;34323;52.022;5.686;2023-11-19T04:40:09;28.38;;;5.60;;
48534;SDS011;34323;52.022;5.686;2023-11-19T04:42:37;41.63;;;6.57;;
48534;SDS011;34323;52.022;5.686;2023-11-19T04:45:05;39.50;;;5.85;;
48534;SDS011;34323;52.022;5.686;2023-11-19T04:47:32;44.25;;;6.40;;
48534;SDS011;34323;52.022;5.686;2023-11-19T04:49:58;40.17;;;6.05;;
48534;SDS011;34323;52.022;5.686;2023-11-19T04:52:23;42.38;;;6.68;;
48534;SDS011;34323;52.022;5.686;2023-11-19T04:54:49;30.05;;;5.97;;
48534;SDS011;34323;52.022;5.686;2023-11-19T04:57:15;29.42;;;5.07;;
48534;SDS011;34323;52.022;5.686;2023-11-19T04:59:40;48.10;;;6.97;;
48534;SDS011;34323;52.022;5.686;2023-11-19T05:02:06;45.05;;;6.45;;
48534;SDS011;34323;52.022;5.686;2023-11-19T05:04:33;47.95;;;6.45;;
48534;SDS011;34323;52.022;5.686;2023-11-19T05:06:58;38.80;;;5.70;;
48534;SDS011;34323;52.022;5.686;2023-11-19T05:09:24;37.63;;;5.07;;
48534;SDS011;34323;52.022;5.686;2023-11-19T05:11:50;45.28;;;6.32;;
48534;SDS011;34323;52.022;5.686;2023-11-19T05:14:16;36.28;;;6.07;;
48534;SDS011;34323;52.022;5.686;2023-11-19T05:16:43;41.40;;;6.00;;
48534;SDS011;34323;52.022;5.686;2023-11-19T05:19:09;31.38;;;5.97;;
48534;SDS011;34323;52.022;5.686;2023-11-19T05:21:34;49.80;;;6.70;;
48534;SDS011;34323;52.022;5.686;2023-11-19T05:24:00;42.30;;;7.35;;
48534;SDS011;34323;52.022;5.686;2023-11-19T05:26:29;48.88;;;6.32;;
48534;SDS011;34323;52.022;5.686;2023-11-19T05:28:55;35.50;;;6.15;;
48534;SDS011;34323;52.022;5.686;2023-11-19T05:31:21;36.60;;;5.65;;
48534;SDS011;34323;52.022;5.686;2023-11-19T05:33:47;32.20;;;5.10;;
48534;SDS011;34323;52.022;5.686;2023-11-19T05:36:12;40.22;;;7.55;;
48534;SDS011;34323;52.022;5.686;2023-11-19T05:38:38;32.25;;;6.25;;
48534;SDS011;34323;52.022;5.686;2023-11-19T05:41:04;40.10;;;7.18;;
48534;SDS011;34323;52.022;5.686;2023-11-19T05:43:30;43.13;;;6.15;;
48534;SDS011;34323;52.022;5.686;2023-11-19T05:45:57;27.95;;;4.47;;
48534;SDS011;34323;52.022;5.686;2023-11-19T05:48:23;33.88;;;5.32;;
48534;SDS011;34323;52.022;5.686;2023-11-19T05:50:50;37.15;;;6.07;;
48534;SDS011;34323;52.022;5.686;2023-11-19T05:53:16;32.85;;;5.05;;
48534;SDS011;34323;52.022;5.686;2023-11-19T05:55:42;46.65;;;6.43;;
48534;SDS011;34323;52.022;5.686;2023-11-19T05:58:33;45.00;;;6.22;;
48534;SDS011;34323;52.022;5.686;2023-11-19T06:00:59;46.08;;;4.70;;
48534;SDS011;34323;52.022;5.686;2023-11-19T06:03:26;47.90;;;7.05;;
48534;SDS011;34323;52.022;5.686;2023-11-19T06:05:51;40.08;;;5.95;;
48534;SDS011;34323;52.022;5.686;2023-11-19T06:08:17;43.38;;;6.90;;
48534;SDS011;34323;52.022;5.686;2023-11-19T06:10:45;47.78;;;8.13;;
48534;SDS011;34323;52.022;5.686;2023-11-19T06:13:11;37.50;;;5.93;;
48534;SDS011;34323;52.022;5.686;2023-11-19T06:15:40;38.38;;;6.03;;
48534;SDS011;34323;52.022;5.686;2023-11-19T06:18:06;35.97;;;5.75;;
48534;SDS011;34323;52.022;5.686;2023-11-19T06:20:33;42.78;;;6.70;;
48534;SDS011;34323;52.022;5.686;2023-11-19T06:22:59;38.03;;;6.28;;
48534;SDS011;34323;52.022;5.686;2023-11-19T06:25:25;40.60;;;5.60;;
48534;SDS011;34323;52.022;5.686;2023-11-19T06:27:51;38.88;;;7.60;;
48534;SDS011;34323;52.022;5.686;2023-11-19T06:30:18;48.08;;;7.13;;
48534;SDS011;34323;52.022;5.686;2023-11-19T06:32:44;42.28;;;8.32;;
48534;SDS011;34323;52.022;5.686;2023-11-19T06:35:11;43.97;;;5.47;;
48534;SDS011;34323;52.022;5.686;2023-11-19T06:37:39;34.35;;;5.78;;
48534;SDS011;34323;52.022;5.686;2023-11-19T06:40:05;36.95;;;5.88;;
48534;SDS011;34323;52.022;5.686;2023-11-19T06:42:31;45.78;;;5.78;;
48534;SDS011;34323;52.022;5.686;2023-11-19T06:44:57;48.70;;;5.97;;
48534;SDS011;34323;52.022;5.686;2023-11-19T06:47:26;42.78;;;8.05;;
48534;SDS011;34323;52.022;5.686;2023-11-19T06:49:53;44.67;;;6.68;;
48534;SDS011;34323;52.022;5.686;2023-11-19T06:52:19;37.83;;;7.20;;
48534;SDS011;34323;52.022;5.686;2023-11-19T06:54:44;52.35;;;7.30;;
48534;SDS011;34323;52.022;5.686;2023-11-19T06:57:11;45.22;;;6.53;;
48534;SDS011;34323;52.022;5.686;2023-11-19T06:59:37;39.25;;;5.57;;
48534;SDS011;34323;52.022;5.686;2023-11-19T07:02:03;39.88;;;6.03;;
48534;SDS011;34323;52.022;5.686;2023-11-19T07:04:30;44.38;;;7.57;;
48534;SDS011;34323;52.022;5.686;2023-11-19T07:06:55;34.75;;;6.80;;
48534;SDS011;34323;52.022;5.686;2023-11-19T07:09:21;30.35;;;5.38;;
48534;SDS011;34323;52.022;5.686;2023-11-19T07:11:48;37.83;;;6.03;;
48534;SDS011;34323;52.022;5.686;2023-11-19T07:14:16;50.88;;;6.28;;
48534;SDS011;34323;52.022;5.686;2023-11-19T07:16:42;42.38;;;6.22;;
48534;SDS011;34323;52.022;5.686;2023-11-19T07:19:08;50.22;;;7.90;;
48534;SDS011;34323;52.022;5.686;2023-11-19T07:21:34;41.25;;;5.43;;
48534;SDS011;34323;52.022;5.686;2023-11-19T07:24:04;47.17;;;6.97;;
48534;SDS011;34323;52.022;5.686;2023-11-19T07:26:30;48.75;;;6.82;;
48534;SDS011;34323;52.022;5.686;2023-11-19T07:28:56;38.97;;;5.75;;
48534;SDS011;34323;52.022;5.686;2023-11-19T07:31:22;39.75;;;6.47;;
48534;SDS011;34323;52.022;5.686;2023-11-19T07:33:48;46.17;;;6.85;;
48534;SDS011;34323;52.022;5.686;2023-11-19T07:36:14;38.47;;;6.95;;
48534;SDS011;34323;52.022;5.686;2023-11-19T07:38:40;40.67;;;6.68;;
48534;SDS011;34323;52.022;5.686;2023-11-19T07:41:06;36.38;;;5.85;;
48534;SDS011;34323;52.022;5.686;2023-11-19T07:43:34;39.63;;;6.93;;
48534;SDS011;34323;52.022;5.686;2023-11-19T07:45:59;36.00;;;6.45;;
48534;SDS011;34323;52.022;5.686;2023-11-19T07:48:25;41.53;;;5.65;;
48534;SDS011;34323;52.022;5.686;2023-11-19T07:50:54;40.05;;;6.10;;
48534;SDS011;34323;52.022;5.686;2023-11-19T07:53:19;42.30;;;6.22;;
48534;SDS011;34323;52.022;5.686;2023-11-19T07:55:45;37.40;;;5.55;;
48534;SDS011;34323;52.022;5.686;2023-11-19T07:58:11;37.45;;;4.88;;
48534;SDS011;34323;52.022;5.686;2023-11-19T08:00:37;44.30;;;5.85;;
48534;SDS011;34323;52.022;5.686;2023-11-19T08:03:03;33.97;;;5.93;;
48534;SDS011;34323;52.022;5.686;2023-11-19T08:05:30;37.45;;;5.45;;
48534;SDS011;34323;52.022;5.686;2023-11-19T08:07:56;46.03;;;7.43;;
48534;SDS011;34323;52.022;5.686;2023-11-19T08:10:23;33.58;;;6.10;;
48534;SDS011;34323;52.022;5.686;2023-11-19T08:12:48;43.13;;;6.93;;
48534;SDS011;34323;52.022;5.686;2023-11-19T08:15:14;40.47;;;5.97;;
48534;SDS011;34323;52.022;5.686;2023-11-19T08:17:41;44.47;;;7.07;;
48534;SDS011;34323;52.022;5.686;2023-11-19T08:20:08;41.42;;;6.70;;
48534;SDS011;34323;52.022;5.686;2023-11-19T08:22:38;42.42;;;6.30;;
48534;SDS011;34323;52.022;5.686;2023-11-19T08:25:05;30.55;;;5.68;;
48534;SDS011;34323;52.022;5.686;2023-11-19T08:27:31;45.60;;;6.10;;
48534;SDS011;34323;52.022;5.686;2023-11-19T08:29:57;42.65;;;5.75;;
48534;SDS011;34323;52.022;5.686;2023-11-19T08:32:23;37.13;;;6.25;;
48534;SDS011;34323;52.022;5.686;2023-11-19T08:34:49;32.15;;;4.70;;
48534;SDS011;34323;52.022;5.686;2023-11-19T08:37:15;34.38;;;6.10;;
48534;SDS011;34323;52.022;5.686;2023-11-19T08:39:43;32.00;;;6.72;;
48534;SDS011;34323;52.022;5.686;2023-11-19T08:42:09;44.63;;;6.70;;
48534;SDS011;34323;52.022;5.686;2023-11-19T08:44:35;42.10;;;7.60;;
48534;SDS011;34323;52.022;5.686;2023-11-19T08:47:01;39.42;;;6.00;;
48534;SDS011;34323;52.022;5.686;2023-11-19T08:49:26;31.30;;;5.22;;
48534;SDS011;34323;52.022;5.686;2023-11-19T08:51:52;46.83;;;7.05;;
48534;SDS011;34323;52.022;5.686;2023-11-19T08:54:17;28.58;;;4.88;;
48534;SDS011;34323;52.022;5.686;2023-11-19T08:56:45;28.42;;;5.00;;
48534;SDS011;34323;52.022;5.686;2023-11-19T08:59:11;50.42;;;5.85;;
48534;SDS011;34323;52.022;5.686;2023-11-19T09:01:36;36.33;;;6.32;;
48534;SDS011;34323;52.022;5.686;2023-11-19T09:04:02;43.63;;;5.65;;
48534;SDS011;34323;52.022;5.686;2023-11-19T09:06:28;40.25;;;5.85;;
48534;SDS011;34323;52.022;5.686;2023-11-19T09:08:53;44.25;;;5.45;;
48534;SDS011;34323;52.022;5.686;2023-11-19T09:11:23;32.83;;;5.55;;
48534;SDS011;34323;52.022;5.686;2023-11-19T09:13:49;32.03;;;5.57;;
48534;SDS011;34323;52.022;5.686;2023-11-19T09:16:14;28.17;;;5.75;;
48534;SDS011;34323;52.022;5.686;2023-11-19T09:18:40;33.28;;;4.97;;
48534;SDS011;34323;52.022;5.686;2023-11-19T09:21:06;30.58;;;6.07;;
48534;SDS011;34323;52.022;5.686;2023-11-19T09:23:32;45.10;;;7.35;;
48534;SDS011;34323;52.022;5.686;2023-11-19T09:26:03;51.75;;;7.88;;
48534;SDS011;34323;52.022;5.686;2023-11-19T09:28:30;38.83;;;5.97;;
48534;SDS011;34323;52.022;5.686;2023-11-19T09:30:56;47.60;;;6.13;;
48534;SDS011;34323;52.022;5.686;2023-11-19T09:33:21;33.10;;;5.50;;
48534;SDS011;34323;52.022;5.686;2023-11-19T09:35:47;38.33;;;5.57;;
48534;SDS011;34323;52.022;5.686;2023-11-19T09:38:14;40.05;;;5.70;;
48534;SDS011;34323;52.022;5.686;2023-11-19T09:40:40;40.70;;;6.03;;
48534;SDS011;34323;52.022;5.686;2023-11-19T09:43:06;34.30;;;5.53;;
48534;SDS011;34323;52.022;5.686;2023-11-19T09:45:36;43.85;;;4.93;;
48534;SDS011;34323;52.022;5.686;2023-11-19T09:48:16;33.03;;;5.72;;
48534;SDS011;34323;52.022;5.686;2023-11-19T09:50:44;35.88;;;6.78;;
48534;SDS011;34323;52.022;5.686;2023-11-19T09:53:13;29.75;;;5.10;;
48534;SDS011;34323;52.022;5.686;2023-11-19T09:55:40;33.40;;;5.70;;
48534;SDS011;34323;52.022;5.686;2023-11-19T09:58:07;50.40;;;6.82;;
48534;SDS011;34323;52.022;5.686;2023-11-19T10:00:34;41.58;;;5.47;;
48534;SDS011;34323;52.022;5.686;2023-11-19T10:03:00;35.50;;;5.10;;
48534;SDS011;34323;52.022;5.686;2023-11-19T10:05:27;39.15;;;6.15;;
48534;SDS011;34323;52.022;5.686;2023-11-19T10:07:53;37.25;;;6.25;;
48534;SDS011;34323;52.022;5.686;2023-11-19T10:10:20;30.77;;;5.03;;
48534;SDS011;34323;52.022;5.686;2023-11-19T10:12:46;32.75;;;6.05;;
48534;SDS011;34323;52.022;5.686;2023-11-19T10:15:17;31.73;;;5.60;;
48534;SDS011;34323;52.022;5.686;2023-11-19T10:17:47;28.52;;;5.70;;
48534;SDS011;34323;52.022;5.686;2023-11-19T10:20:13;34.45;;;6.05;;
48534;SDS011;34323;52.022;5.686;2023-11-19T10:22:39;42.40;;;5.90;;
48534;SDS011;34323;52.022;5.686;2023-11-19T10:25:26;33.60;;;5.78;;
48534;SDS011;34323;52.022;5.686;2023-11-19T10:27:51;41.95;;;5.43;;
48534;SDS011;34323;52.022;5.686;2023-11-19T10:30:21;34.72;;;5.93;;
48534;SDS011;34323;52.022;5.686;2023-11-19T10:33:21;39.53;;;4.55;;
48534;SDS011;34323;52.022;5.686;2023-11-19T10:35:52;31.98;;;4.70;;
48534;SDS011;34323;52.022;5.686;2023-11-19T10:38:22;29.02;;;4.75;;
48534;SDS011;34323;52.022;5.686;2023-11-19T10:40:49;41.08;;;6.18;;
48534;SDS011;34323;52.022;5.686;2023-11-19T10:43:19;39.70;;;6.50;;
48534;SDS011;34323;52.022;5.686;2023-11-19T10:45:47;33.88;;;5.63;;
48534;SDS011;34323;52.022;5.686;2023-11-19T10:48:13;36.45;;;6.63;;
48534;SDS011;34323;52.022;5.686;2023-11-19T10:50:40;36.95;;;8.13;;
48534;SDS011;34323;52.022;5.686;2023-11-19T10:53:08;32.17;;;6.60;;
48534;SDS011;34323;52.022;5.686;2023-11-19T10:55:38;34.33;;;7.03;;
48534;SDS011;34323;52.022;5.686;2023-11-19T10:58:05;35.70;;;6.18;;
48534;SDS011;34323;52.022;5.686;2023-11-19T11:00:43;33.65;;;5.65;;
48534;SDS011;34323;52.022;5.686;2023-11-19T11:03:24;25.27;;;4.80;;
48534;SDS011;34323;52.022;5.686;2023-11-19T11:05:52;36.22;;;7.43;;
48534;SDS011;34323;52.022;5.686;2023-11-19T11:08:19;42.67;;;7.40;;
48534;SDS011;34323;52.022;5.686;2023-11-19T11:10:48;41.15;;;10.00;;
48534;SDS011;34323;52.022;5.686;2023-11-19T11:13:20;23.00;;;6.60;;
48534;SDS011;34323;52.022;5.686;2023-11-19T11:15:49;35.83;;;5.65;;
48534;SDS011;34323;52.022;5.686;2023-11-19T11:18:15;27.33;;;5.57;;
48534;SDS011;34323;52.022;5.686;2023-11-19T11:20:43;30.77;;;4.63;;
48534;SDS011;34323;52.022;5.686;2023-11-19T11:31:29;38.10;;;6.70;;
48534;SDS011;34323;52.022;5.686;2023-11-19T11:37:20;36.97;;;6.55;;
48534;SDS011;34323;52.022;5.686;2023-11-19T11:39:51;37.53;;;6.03;;
48534;SDS011;34323;52.022;5.686;2023-11-19T11:48:15;35.58;;;5.55;;
48534;SDS011;34323;52.022;5.686;2023-11-19T11:50:22;33.85;;;6.18;;
48534;SDS011;34323;52.022;5.686;2023-11-19T11:57:50;27.38;;;5.82;;
48534;SDS011;34323;52.022;5.686;2023-11-19T12:00:22;33.25;;;6.03;;
48534;SDS011;34323;52.022;5.686;2023-11-19T12:03:01;30.02;;;5.68;;
48534;SDS011;34323;52.022;5.686;2023-11-19T12:05:27;33.15;;;4.93;;
48534;SDS011;34323;52.022;5.686;2023-11-19T12:07:54;26.30;;;3.70;;
48534;SDS011;34323;52.022;5.686;2023-11-19T12:10:23;24.38;;;4.35;;
48534;SDS011;34323;52.022;5.686;2023-11-19T12:12:52;24.90;;;5.20;;
48534;SDS011;34323;52.022;5.686;2023-11-19T12:15:20;20.60;;;4.68;;
48534;SDS011;34323;52.022;5.686;2023-11-19T12:17:52;14.35;;;3.33;;
48534;SDS011;34323;52.022;5.686;2023-11-19T12:20:18;23.65;;;4.15;;
48534;SDS011;34323;52.022;5.686;2023-11-19T12:22:46;22.05;;;3.55;;
48534;SDS011;34323;52.022;5.686;2023-11-19T12:25:14;25.55;;;4.95;;
48534;SDS011;34323;52.022;5.686;2023-11-19T12:27:50;24.40;;;5.15;;
48534;SDS011;34323;52.022;5.686;2023-11-19T12:30:21;20.73;;;4.32;;
48534;SDS011;34323;52.022;5.686;2023-11-19T12:32:47;18.42;;;4.75;;
48534;SDS011;34323;52.022;5.686;2023-11-19T12:35:14;26.10;;;4.25;;
48534;SDS011;34323;52.022;5.686;2023-11-19T12:37:40;29.17;;;5.38;;
48534;SDS011;34323;52.022;5.686;2023-11-19T12:40:14;27.23;;;3.97;;
48534;SDS011;34323;52.022;5.686;2023-11-19T12:42:40;16.58;;;3.60;;
48534;SDS011;34323;52.022;5.686;2023-11-19T12:45:06;25.83;;;7.53;;
48534;SDS011;34323;52.022;5.686;2023-11-19T12:47:33;29.17;;;5.60;;
48534;SDS011;34323;52.022;5.686;2023-11-19T12:49:59;25.92;;;4.28;;
48534;SDS011;34323;52.022;5.686;2023-11-19T12:52:24;28.73;;;4.57;;
48534;SDS011;34323;52.022;5.686;2023-11-19T12:54:50;29.85;;;5.22;;
48534;SDS011;34323;52.022;5.686;2023-11-19T12:57:16;22.63;;;4.40;;
48534;SDS011;34323;52.022;5.686;2023-11-19T12:59:53;20.27;;;3.42;;
48534;SDS011;34323;52.022;5.686;2023-11-19T13:02:20;27.17;;;4.68;;
48534;SDS011;34323;52.022;5.686;2023-11-19T13:04:47;28.55;;;4.22;;
48534;SDS011;34323;52.022;5.686;2023-11-19T13:07:12;24.20;;;4.43;;
48534;SDS011;34323;52.022;5.686;2023-11-19T13:09:38;29.15;;;3.78;;
48534;SDS011;34323;52.022;5.686;2023-11-19T13:12:13;26.58;;;4.00;;
48534;SDS011;34323;52.022;5.686;2023-11-19T13:14:40;26.08;;;4.80;;
48534;SDS011;34323;52.022;5.686;2023-11-19T13:17:07;20.83;;;4.10;;
48534;SDS011;34323;52.022;5.686;2023-11-19T13:19:33;19.27;;;4.47;;
48534;SDS011;34323;52.022;5.686;2023-11-19T13:21:59;20.08;;;4.63;;
48534;SDS011;34323;52.022;5.686;2023-11-19T13:24:25;30.98;;;4.63;;
48534;SDS011;34323;52.022;5.686;2023-11-19T13:26:50;26.23;;;4.30;;
48534;SDS011;34323;52.022;5.686;2023-11-19T13:29:16;27.50;;;5.40;;
48534;SDS011;34323;52.022;5.686;2023-11-19T13:31:41;36.60;;;5.30;;
48534;SDS011;34323;52.022;5.686;2023-11-19T13:34:07;27.88;;;4.53;;
48534;SDS011;34323;52.022;5.686;2023-11-19T13:36:33;23.58;;;4.15;;
48534;SDS011;34323;52.022;5.686;2023-11-19T13:38:59;32.97;;;5.60;;
48534;SDS011;34323;52.022;5.686;2023-11-19T13:41:26;33.45;;;5.50;;
48534;SDS011;34323;52.022;5.686;2023-11-19T13:43:52;26.50;;;4.55;;
48534;SDS011;34323;52.022;5.686;2023-11-19T13:46:18;26.52;;;5.55;;
48534;SDS011;34323;52.022;5.686;2023-11-19T13:48:45;39.13;;;6.07;;
48534;SDS011;34323;52.022;5.686;2023-11-19T13:51:10;23.92;;;4.47;;
48534;SDS011;34323;52.022;5.686;2023-11-19T13:53:36;30.60;;;5.53;;
48534;SDS011;34323;52.022;5.686;2023-11-19T13:56:02;30.30;;;4.47;;
48534;SDS011;34323;52.022;5.686;2023-11-19T13:58:28;27.08;;;4.70;;
48534;SDS011;34323;52.022;5.686;2023-11-19T14:00:54;18.48;;;3.55;;
48534;SDS011;34323;52.022;5.686;2023-11-19T14:03:20;16.00;;;3.70;;
48534;SDS011;34323;52.022;5.686;2023-11-19T14:05:45;29.20;;;4.30;;
48534;SDS011;34323;52.022;5.686;2023-11-19T14:08:12;22.10;;;4.70;;
48534;SDS011;34323;52.022;5.686;2023-11-19T14:10:38;20.48;;;3.53;;
48534;SDS011;34323;52.022;5.686;2023-11-19T14:13:07;30.00;;;4.25;;
48534;SDS011;34323;52.022;5.686;2023-11-19T14:15:33;22.92;;;3.28;;
48534;SDS011;34323;52.022;5.686;2023-11-19T14:18:00;17.30;;;3.17;;
48534;SDS011;34323;52.022;5.686;2023-11-19T14:20:26;27.27;;;4.45;;
48534;SDS011;34323;52.022;5.686;2023-11-19T14:22:52;24.00;;;4.18;;
48534;SDS011;34323;52.022;5.686;2023-11-19T14:25:18;34.33;;;4.43;;
48534;SDS011;34323;52.022;5.686;2023-11-19T14:27:46;32.35;;;4.00;;
48534;SDS011;34323;52.022;5.686;2023-11-19T14:30:12;28.35;;;5.43;;
48534;SDS011;34323;52.022;5.686;2023-11-19T14:32:40;21.13;;;3.10;;
48534;SDS011;34323;52.022;5.686;2023-11-19T14:35:07;29.67;;;4.82;;
48534;SDS011;34323;52.022;5.686;2023-11-19T14:37:33;22.45;;;4.32;;
48534;SDS011;34323;52.022;5.686;2023-11-19T14:39:59;22.73;;;3.88;;
48534;SDS011;34323;52.022;5.686;2023-11-19T14:42:26;26.30;;;4.03;;
48534;SDS011;34323;52.022;5.686;2023-11-19T14:44:52;16.27;;;3.70;;
48534;SDS011;34323;52.022;5.686;2023-11-19T14:47:21;26.83;;;4.93;;
48534;SDS011;34323;52.022;5.686;2023-11-19T14:49:47;29.63;;;4.57;;
48534;SDS011;34323;52.022;5.686;2023-11-19T14:52:14;22.73;;;4.38;;
48534;SDS011;34323;52.022;5.686;2023-11-19T14:54:40;21.65;;;3.92;;
48534;SDS011;34323;52.022;5.686;2023-11-19T14:57:06;22.42;;;4.15;;